sensor_id;sensor_type;location;lat;lon;timestamp;noise_LAeq;noise_LA_min;noise_LA_max;noise_LA01;noise_LA95
76382;Laerm;65202;52.520;10.528;2023-03-01T00:01:40;36.42;31.72;44.52;;
76382;Laerm;65202;52.520;10.528;2023-03-01T00:04:07;35.98;31.50;43.90;;
76382;Laerm;65202;52.520;10.528;2023-03-01T00:06:34;35.71;31.33;44.42;;
76382;Laerm;65202;52.520;10.528;2023-03-01T00:09:02;36.61;31.29;45.45;;
76382;Laerm;65202;52.520;10.528;2023-03-01T00:11:32;38.57;31.41;45.00;;
76382;Laerm;65202;52.520;10.528;2023-03-01T00:14:01;36.17;31.83;46.91;;
76382;Laerm;65202;52.520;10.528;2023-03-01T00:16:33;36.01;31.67;44.26;;
76382;Laerm;65202;52.520;10.528;2023-03-01T00:19:02;36.03;31.75;44.36;;
76382;Laerm;65202;52.520;10.528;2023-03-01T00:21:29;35.00;31.26;44.17;;
76382;Laerm;65202;52.520;10.528;2023-03-01T00:23:57;35.04;31.08;43.88;;
76382;Laerm;65202;52.520;10.528;2023-03-01T00:26:25;36.30;31.87;46.19;;
76382;Laerm;65202;52.520;10.528;2023-03-01T00:28:54;36.79;32.27;44.75;;
76382;Laerm;65202;52.520;10.528;2023-03-01T00:31:25;35.68;31.68;43.13;;
76382;Laerm;65202;52.520;10.528;2023-03-01T00:33:57;35.85;31.43;43.84;;
76382;Laerm;65202;52.520;10.528;2023-03-01T00:36:28;35.74;31.52;44.51;;
76382;Laerm;65202;52.520;10.528;2023-03-01T00:38:57;36.02;31.49;46.65;;
76382;Laerm;65202;52.520;10.528;2023-03-01T00:41:24;36.61;32.27;45.04;;
76382;Laerm;65202;52.520;10.528;2023-03-01T00:43:53;35.27;31.37;50.88;;
76382;Laerm;65202;52.520;10.528;2023-03-01T00:46:24;34.90;31.14;45.31;;
76382;Laerm;65202;52.520;10.528;2023-03-01T00:48:53;34.87;31.16;43.55;;
76382;Laerm;65202;52.520;10.528;2023-03-01T00:51:25;34.73;30.94;44.84;;
76382;Laerm;65202;52.520;10.528;2023-03-01T00:53:55;35.53;31.43;46.25;;
76382;Laerm;65202;52.520;10.528;2023-03-01T00:56:23;37.30;32.17;45.46;;
76382;Laerm;65202;52.520;10.528;2023-03-01T00:58:51;35.10;30.94;44.16;;
76382;Laerm;65202;52.520;10.528;2023-03-01T01:01:23;36.02;31.50;44.48;;
76382;Laerm;65202;52.520;10.528;2023-03-01T01:03:55;38.03;32.51;49.78;;
76382;Laerm;65202;52.520;10.528;2023-03-01T01:06:30;37.68;31.99;48.89;;
76382;Laerm;65202;52.520;10.528;2023-03-01T01:08:59;35.65;31.86;43.71;;
76382;Laerm;65202;52.520;10.528;2023-03-01T01:11:29;36.87;31.90;58.73;;
76382;Laerm;65202;52.520;10.528;2023-03-01T01:13:57;35.10;31.19;43.92;;
76382;Laerm;65202;52.520;10.528;2023-03-01T01:16:26;37.43;32.02;44.50;;
76382;Laerm;65202;52.520;10.528;2023-03-01T01:18:56;35.82;31.42;45.67;;
76382;Laerm;65202;52.520;10.528;2023-03-01T01:21:25;35.71;31.53;43.68;;
76382;Laerm;65202;52.520;10.528;2023-03-01T01:23:53;36.93;32.13;43.83;;
76382;Laerm;65202;52.520;10.528;2023-03-01T01:26:32;35.92;31.72;44.29;;
76382;Laerm;65202;52.520;10.528;2023-03-01T01:29:02;34.77;31.05;44.47;;
76382;Laerm;65202;52.520;10.528;2023-03-01T01:31:32;39.05;31.60;51.35;;
76382;Laerm;65202;52.520;10.528;2023-03-01T01:34:03;36.89;32.38;45.64;;
76382;Laerm;65202;52.520;10.528;2023-03-01T01:36:31;37.11;32.12;46.31;;
76382;Laerm;65202;52.520;10.528;2023-03-01T01:38:59;36.05;31.31;49.08;;
76382;Laerm;65202;52.520;10.528;2023-03-01T01:41:28;36.14;31.43;43.97;;
76382;Laerm;65202;52.520;10.528;2023-03-01T01:47:04;35.86;31.70;43.82;;
76382;Laerm;65202;52.520;10.528;2023-03-01T01:49:53;35.59;31.46;44.15;;
76382;Laerm;65202;52.520;10.528;2023-03-01T01:52:37;34.64;31.24;45.31;;
76382;Laerm;65202;52.520;10.528;2023-03-01T01:55:16;34.20;31.38;37.36;;
76382;Laerm;65202;52.520;10.528;2023-03-01T01:57:53;35.12;31.50;44.31;;
76382;Laerm;65202;52.520;10.528;2023-03-01T02:00:29;34.72;31.11;42.33;;
76382;Laerm;65202;52.520;10.528;2023-03-01T02:03:01;34.79;31.18;43.49;;
76382;Laerm;65202;52.520;10.528;2023-03-01T02:05:53;35.94;32.00;44.41;;
76382;Laerm;65202;52.520;10.528;2023-03-01T02:08:27;35.75;32.12;44.79;;
76382;Laerm;65202;52.520;10.528;2023-03-01T02:10:59;35.43;31.53;45.27;;
76382;Laerm;65202;52.520;10.528;2023-03-01T02:13:27;35.95;32.10;43.86;;
76382;Laerm;65202;52.520;10.528;2023-03-01T02:15:55;35.36;31.62;43.68;;
76382;Laerm;65202;52.520;10.528;2023-03-01T02:18:24;35.05;31.09;43.91;;
76382;Laerm;65202;52.520;10.528;2023-03-01T02:21:13;35.42;31.56;44.12;;
76382;Laerm;65202;52.520;10.528;2023-03-01T02:23:43;35.77;32.21;43.27;;
76382;Laerm;65202;52.520;10.528;2023-03-01T02:29:06;36.95;32.00;43.64;;
76382;Laerm;65202;52.520;10.528;2023-03-01T02:31:33;35.31;31.23;44.98;;
76382;Laerm;65202;52.520;10.528;2023-03-01T02:34:14;36.32;32.24;45.64;;
76382;Laerm;65202;52.520;10.528;2023-03-01T02:39:32;36.91;32.14;44.14;;
76382;Laerm;65202;52.520;10.528;2023-03-01T02:42:02;36.32;31.91;42.86;;
76382;Laerm;65202;52.520;10.528;2023-03-01T02:44:30;35.89;31.76;58.48;;
76382;Laerm;65202;52.520;10.528;2023-03-01T02:47:02;35.14;31.34;44.75;;
76382;Laerm;65202;52.520;10.528;2023-03-01T02:49:34;36.58;31.71;45.28;;
76382;Laerm;65202;52.520;10.528;2023-03-01T02:52:47;39.19;32.52;46.92;;
76382;Laerm;65202;52.520;10.528;2023-03-01T02:55:20;35.48;31.76;42.81;;
76382;Laerm;65202;52.520;10.528;2023-03-01T02:57:48;36.72;32.21;45.50;;
76382;Laerm;65202;52.520;10.528;2023-03-01T03:00:25;37.20;31.76;44.75;;
76382;Laerm;65202;52.520;10.528;2023-03-01T03:02:54;35.26;31.80;43.76;;
76382;Laerm;65202;52.520;10.528;2023-03-01T03:05:28;36.04;31.84;43.39;;
76382;Laerm;65202;52.520;10.528;2023-03-01T03:07:56;35.71;31.71;44.29;;
76382;Laerm;65202;52.520;10.528;2023-03-01T03:10:31;36.40;32.12;43.59;;
76382;Laerm;65202;52.520;10.528;2023-03-01T03:13:13;36.51;31.83;44.10;;
76382;Laerm;65202;52.520;10.528;2023-03-01T03:15:42;36.50;32.15;45.45;;
76382;Laerm;65202;52.520;10.528;2023-03-01T03:18:16;36.63;32.37;43.99;;
76382;Laerm;65202;52.520;10.528;2023-03-01T03:20:44;36.00;32.10;43.65;;
76382;Laerm;65202;52.520;10.528;2023-03-01T03:23:13;37.38;31.85;55.97;;
76382;Laerm;65202;52.520;10.528;2023-03-01T03:25:40;38.15;33.16;45.71;;
76382;Laerm;65202;52.520;10.528;2023-03-01T03:28:07;37.46;32.24;45.78;;
76382;Laerm;65202;52.520;10.528;2023-03-01T03:30:40;37.80;32.73;47.02;;
76382;Laerm;65202;52.520;10.528;2023-03-01T03:33:10;38.29;33.11;58.60;;
76382;Laerm;65202;52.520;10.528;2023-03-01T03:35:44;40.28;33.65;61.06;;
76382;Laerm;65202;52.520;10.528;2023-03-01T03:38:14;38.35;33.42;60.91;;
76382;Laerm;65202;52.520;10.528;2023-03-01T03:40:52;46.45;33.81;65.14;;
76382;Laerm;65202;52.520;10.528;2023-03-01T03:43:32;48.75;43.67;63.01;;
76382;Laerm;65202;52.520;10.528;2023-03-01T03:46:00;45.88;42.44;61.54;;
76382;Laerm;65202;52.520;10.528;2023-03-01T03:48:27;45.16;41.93;54.31;;
76382;Laerm;65202;52.520;10.528;2023-03-01T03:50:56;45.53;39.01;72.53;;
76382;Laerm;65202;52.520;10.528;2023-03-01T03:53:26;38.96;33.46;48.99;;
76382;Laerm;65202;52.520;10.528;2023-03-01T03:55:54;36.82;32.85;44.47;;
76382;Laerm;65202;52.520;10.528;2023-03-01T03:58:24;38.46;33.93;43.45;;
76382;Laerm;65202;52.520;10.528;2023-03-01T04:00:56;39.41;34.64;48.42;;
76382;Laerm;65202;52.520;10.528;2023-03-01T04:03:26;43.42;36.54;67.48;;
76382;Laerm;65202;52.520;10.528;2023-03-01T04:05:54;46.48;36.61;71.32;;
76382;Laerm;65202;52.520;10.528;2023-03-01T04:08:23;39.46;35.79;45.06;;
76382;Laerm;65202;52.520;10.528;2023-03-01T04:10:57;40.73;35.69;48.84;;
76382;Laerm;65202;52.520;10.528;2023-03-01T04:13:25;41.58;36.17;47.47;;
76382;Laerm;65202;52.520;10.528;2023-03-01T04:15:54;40.53;35.55;47.14;;
76382;Laerm;65202;52.520;10.528;2023-03-01T04:18:23;41.16;37.83;45.67;;
76382;Laerm;65202;52.520;10.528;2023-03-01T04:20:53;47.33;36.47;65.38;;
76382;Laerm;65202;52.520;10.528;2023-03-01T04:23:22;41.33;37.16;46.01;;
76382;Laerm;65202;52.520;10.528;2023-03-01T04:25:56;39.51;36.38;44.21;;
76382;Laerm;65202;52.520;10.528;2023-03-01T04:31:22;39.10;35.95;45.59;;
76382;Laerm;65202;52.520;10.528;2023-03-01T04:33:54;40.42;36.27;45.85;;
76382;Laerm;65202;52.520;10.528;2023-03-01T04:36:27;41.49;36.63;49.67;;
76382;Laerm;65202;52.520;10.528;2023-03-01T04:38:55;41.00;37.18;51.00;;
76382;Laerm;65202;52.520;10.528;2023-03-01T04:41:25;40.98;37.59;44.88;;
76382;Laerm;65202;52.520;10.528;2023-03-01T04:43:52;41.50;37.02;46.10;;
76382;Laerm;65202;52.520;10.528;2023-03-01T04:46:20;41.68;36.65;53.75;;
76382;Laerm;65202;52.520;10.528;2023-03-01T04:48:55;42.63;37.45;55.14;;
76382;Laerm;65202;52.520;10.528;2023-03-01T04:51:23;42.55;36.64;51.45;;
76382;Laerm;65202;52.520;10.528;2023-03-01T04:53:50;41.52;36.54;47.38;;
76382;Laerm;65202;52.520;10.528;2023-03-01T04:56:18;40.09;34.83;45.74;;
76382;Laerm;65202;52.520;10.528;2023-03-01T04:58:46;40.67;36.33;47.37;;
76382;Laerm;65202;52.520;10.528;2023-03-01T05:01:17;40.86;36.89;46.29;;
76382;Laerm;65202;52.520;10.528;2023-03-01T05:03:51;40.59;37.19;45.61;;
76382;Laerm;65202;52.520;10.528;2023-03-01T05:06:20;41.02;37.88;45.48;;
76382;Laerm;65202;52.520;10.528;2023-03-01T05:08:47;41.86;37.31;67.61;;
76382;Laerm;65202;52.520;10.528;2023-03-01T05:11:16;41.04;36.77;45.78;;
76382;Laerm;65202;52.520;10.528;2023-03-01T05:13:43;40.66;37.03;52.46;;
76382;Laerm;65202;52.520;10.528;2023-03-01T05:16:10;41.34;37.68;59.26;;
76382;Laerm;65202;52.520;10.528;2023-03-01T05:18:39;43.05;38.61;51.22;;
76382;Laerm;65202;52.520;10.528;2023-03-01T05:21:13;44.37;38.24;59.19;;
76382;Laerm;65202;52.520;10.528;2023-03-01T05:23:43;42.62;39.07;53.59;;
76382;Laerm;65202;52.520;10.528;2023-03-01T05:26:11;48.35;38.91;65.15;;
76382;Laerm;65202;52.520;10.528;2023-03-01T05:28:55;47.69;38.72;65.76;;
76382;Laerm;65202;52.520;10.528;2023-03-01T05:31:26;49.87;39.55;68.92;;
76382;Laerm;65202;52.520;10.528;2023-03-01T05:33:53;46.25;39.26;58.72;;
76382;Laerm;65202;52.520;10.528;2023-03-01T05:36:21;43.67;38.65;56.48;;
76382;Laerm;65202;52.520;10.528;2023-03-01T05:38:48;42.69;38.15;52.68;;
76382;Laerm;65202;52.520;10.528;2023-03-01T05:41:15;42.88;38.89;53.27;;
76382;Laerm;65202;52.520;10.528;2023-03-01T05:43:44;46.80;38.66;61.69;;
76382;Laerm;65202;52.520;10.528;2023-03-01T05:46:12;42.71;39.45;48.48;;
76382;Laerm;65202;52.520;10.528;2023-03-01T05:48:41;46.14;39.20;60.93;;
76382;Laerm;65202;52.520;10.528;2023-03-01T05:51:08;44.53;39.48;52.98;;
76382;Laerm;65202;52.520;10.528;2023-03-01T05:53:35;44.84;39.74;59.77;;
76382;Laerm;65202;52.520;10.528;2023-03-01T05:56:04;45.41;38.91;59.22;;
76382;Laerm;65202;52.520;10.528;2023-03-01T05:58:31;48.73;40.59;64.47;;
76382;Laerm;65202;52.520;10.528;2023-03-01T06:00:58;47.75;40.83;59.25;;
76382;Laerm;65202;52.520;10.528;2023-03-01T06:03:25;47.13;39.43;59.00;;
76382;Laerm;65202;52.520;10.528;2023-03-01T06:05:56;46.07;40.17;56.03;;
76382;Laerm;65202;52.520;10.528;2023-03-01T06:08:24;44.91;39.13;56.35;;
76382;Laerm;65202;52.520;10.528;2023-03-01T06:10:53;47.08;39.10;64.11;;
76382;Laerm;65202;52.520;10.528;2023-03-01T06:13:22;44.54;39.88;54.54;;
76382;Laerm;65202;52.520;10.528;2023-03-01T06:15:50;46.26;40.12;58.05;;
76382;Laerm;65202;52.520;10.528;2023-03-01T06:18:18;48.64;39.69;62.50;;
76382;Laerm;65202;52.520;10.528;2023-03-01T06:20:45;51.02;42.95;66.67;;
76382;Laerm;65202;52.520;10.528;2023-03-01T06:23:19;49.58;44.73;60.30;;
76382;Laerm;65202;52.520;10.528;2023-03-01T06:25:46;52.18;46.81;65.18;;
76382;Laerm;65202;52.520;10.528;2023-03-01T06:28:13;51.63;42.01;64.51;;
76382;Laerm;65202;52.520;10.528;2023-03-01T06:30:40;51.26;40.58;72.91;;
76382;Laerm;65202;52.520;10.528;2023-03-01T06:33:08;47.75;41.19;60.44;;
76382;Laerm;65202;52.520;10.528;2023-03-01T06:35:35;48.37;41.24;62.27;;
76382;Laerm;65202;52.520;10.528;2023-03-01T06:38:03;48.76;41.64;73.12;;
76382;Laerm;65202;52.520;10.528;2023-03-01T06:40:31;50.66;40.48;69.88;;
76382;Laerm;65202;52.520;10.528;2023-03-01T06:42:59;50.84;40.78;68.08;;
76382;Laerm;65202;52.520;10.528;2023-03-01T06:45:26;50.85;40.24;69.53;;
76382;Laerm;65202;52.520;10.528;2023-03-01T06:48:02;50.49;40.60;68.70;;
76382;Laerm;65202;52.520;10.528;2023-03-01T06:50:30;49.80;40.23;68.48;;
76382;Laerm;65202;52.520;10.528;2023-03-01T06:52:58;46.93;40.71;59.11;;
76382;Laerm;65202;52.520;10.528;2023-03-01T06:55:25;47.38;40.69;70.58;;
76382;Laerm;65202;52.520;10.528;2023-03-01T06:57:57;46.60;41.07;59.09;;
76382;Laerm;65202;52.520;10.528;2023-03-01T07:00:26;46.60;40.58;64.53;;
76382;Laerm;65202;52.520;10.528;2023-03-01T07:02:53;52.59;41.50;67.73;;
76382;Laerm;65202;52.520;10.528;2023-03-01T07:05:21;55.89;52.18;60.37;;
76382;Laerm;65202;52.520;10.528;2023-03-01T07:07:48;54.25;50.91;60.64;;
76382;Laerm;65202;52.520;10.528;2023-03-01T07:10:15;54.07;50.01;64.46;;
76382;Laerm;65202;52.520;10.528;2023-03-01T07:12:42;54.63;50.45;68.33;;
76382;Laerm;65202;52.520;10.528;2023-03-01T07:15:10;55.15;50.38;66.07;;
76382;Laerm;65202;52.520;10.528;2023-03-01T07:17:37;54.54;42.71;67.46;;
76382;Laerm;65202;52.520;10.528;2023-03-01T07:20:05;46.68;39.14;57.43;;
76382;Laerm;65202;52.520;10.528;2023-03-01T07:22:32;52.14;40.34;69.56;;
76382;Laerm;65202;52.520;10.528;2023-03-01T07:24:59;48.62;40.35;62.89;;
76382;Laerm;65202;52.520;10.528;2023-03-01T07:27:26;49.02;40.13;67.69;;
76382;Laerm;65202;52.520;10.528;2023-03-01T07:29:53;48.85;39.42;61.10;;
76382;Laerm;65202;52.520;10.528;2023-03-01T07:32:21;47.07;39.29;59.79;;
76382;Laerm;65202;52.520;10.528;2023-03-01T07:34:48;47.42;37.89;62.25;;
76382;Laerm;65202;52.520;10.528;2023-03-01T07:37:15;47.24;39.79;57.92;;
76382;Laerm;65202;52.520;10.528;2023-03-01T07:39:42;47.71;39.48;64.18;;
76382;Laerm;65202;52.520;10.528;2023-03-01T07:42:09;48.53;40.10;61.65;;
76382;Laerm;65202;52.520;10.528;2023-03-01T07:44:37;52.73;39.55;74.73;;
76382;Laerm;65202;52.520;10.528;2023-03-01T07:47:04;47.07;40.53;55.77;;
76382;Laerm;65202;52.520;10.528;2023-03-01T07:49:31;50.72;40.56;69.16;;
76382;Laerm;65202;52.520;10.528;2023-03-01T07:51:58;48.57;40.67;58.79;;
76382;Laerm;65202;52.520;10.528;2023-03-01T07:54:26;48.94;39.06;67.28;;
76382;Laerm;65202;52.520;10.528;2023-03-01T07:56:53;50.95;37.46;65.81;;
76382;Laerm;65202;52.520;10.528;2023-03-01T07:59:21;46.90;39.07;61.14;;
76382;Laerm;65202;52.520;10.528;2023-03-01T08:01:50;48.05;39.04;63.14;;
76382;Laerm;65202;52.520;10.528;2023-03-01T08:04:17;49.25;39.04;60.98;;
76382;Laerm;65202;52.520;10.528;2023-03-01T08:06:44;45.94;37.55;63.53;;
76382;Laerm;65202;52.520;10.528;2023-03-01T08:09:12;51.02;37.50;66.60;;
76382;Laerm;65202;52.520;10.528;2023-03-01T08:11:39;49.41;38.10;69.53;;
76382;Laerm;65202;52.520;10.528;2023-03-01T08:14:06;48.26;38.56;59.29;;
76382;Laerm;65202;52.520;10.528;2023-03-01T08:16:33;50.03;37.84;69.69;;
76382;Laerm;65202;52.520;10.528;2023-03-01T08:19:11;45.84;37.03;59.56;;
76382;Laerm;65202;52.520;10.528;2023-03-01T08:21:39;45.42;36.24;57.09;;
76382;Laerm;65202;52.520;10.528;2023-03-01T08:24:07;48.05;36.95;63.12;;
76382;Laerm;65202;52.520;10.528;2023-03-01T08:26:34;45.60;35.34;59.12;;
76382;Laerm;65202;52.520;10.528;2023-03-01T08:29:02;44.89;34.82;57.55;;
76382;Laerm;65202;52.520;10.528;2023-03-01T08:31:35;50.64;34.89;70.31;;
76382;Laerm;65202;52.520;10.528;2023-03-01T08:34:10;49.63;35.71;63.90;;
76382;Laerm;65202;52.520;10.528;2023-03-01T08:36:41;48.58;34.98;64.41;;
76382;Laerm;65202;52.520;10.528;2023-03-01T08:39:12;43.96;35.04;55.74;;
76382;Laerm;65202;52.520;10.528;2023-03-01T08:41:41;52.14;35.65;66.43;;
76382;Laerm;65202;52.520;10.528;2023-03-01T08:44:10;49.47;36.19;63.25;;
76382;Laerm;65202;52.520;10.528;2023-03-01T08:46:41;46.99;34.83;60.34;;
76382;Laerm;65202;52.520;10.528;2023-03-01T08:49:15;46.37;34.22;56.73;;
76382;Laerm;65202;52.520;10.528;2023-03-01T08:51:44;49.97;35.54;69.00;;
76382;Laerm;65202;52.520;10.528;2023-03-01T08:54:15;44.80;34.71;58.01;;
76382;Laerm;65202;52.520;10.528;2023-03-01T08:56:43;52.97;34.83;69.60;;
76382;Laerm;65202;52.520;10.528;2023-03-01T08:59:12;52.17;34.83;68.65;;
76382;Laerm;65202;52.520;10.528;2023-03-01T09:01:40;47.28;35.34;65.83;;
76382;Laerm;65202;52.520;10.528;2023-03-01T09:04:11;49.62;35.11;64.53;;
76382;Laerm;65202;52.520;10.528;2023-03-01T09:06:39;52.90;36.69;69.86;;
76382;Laerm;65202;52.520;10.528;2023-03-01T09:09:13;47.55;35.26;65.35;;
76382;Laerm;65202;52.520;10.528;2023-03-01T09:11:43;51.63;36.24;71.00;;
76382;Laerm;65202;52.520;10.528;2023-03-01T09:14:13;49.36;34.98;64.76;;
76382;Laerm;65202;52.520;10.528;2023-03-01T09:16:41;44.19;33.81;56.38;;
76382;Laerm;65202;52.520;10.528;2023-03-01T09:19:08;47.94;33.75;63.74;;
76382;Laerm;65202;52.520;10.528;2023-03-01T09:21:37;45.65;33.79;62.72;;
76382;Laerm;65202;52.520;10.528;2023-03-01T09:24:13;45.19;33.88;65.18;;
76382;Laerm;65202;52.520;10.528;2023-03-01T09:26:42;43.95;33.30;56.95;;
76382;Laerm;65202;52.520;10.528;2023-03-01T09:29:09;44.27;32.74;61.79;;
76382;Laerm;65202;52.520;10.528;2023-03-01T09:31:38;44.83;33.19;59.09;;
76382;Laerm;65202;52.520;10.528;2023-03-01T09:34:06;47.29;35.84;58.26;;
76382;Laerm;65202;52.520;10.528;2023-03-01T09:36:33;44.24;33.77;62.95;;
76382;Laerm;65202;52.520;10.528;2023-03-01T09:39:02;44.53;33.89;59.88;;
76382;Laerm;65202;52.520;10.528;2023-03-01T09:44:30;58.41;33.98;82.91;;
76382;Laerm;65202;52.520;10.528;2023-03-01T09:46:59;43.94;32.83;62.35;;
76382;Laerm;65202;52.520;10.528;2023-03-01T09:49:33;46.25;33.57;63.73;;
76382;Laerm;65202;52.520;10.528;2023-03-01T09:54:55;46.93;34.33;63.98;;
76382;Laerm;65202;52.520;10.528;2023-03-01T09:57:38;44.77;33.71;59.53;;
76382;Laerm;65202;52.520;10.528;2023-03-01T10:00:26;44.05;33.25;64.91;;
76382;Laerm;65202;52.520;10.528;2023-03-01T10:03:11;44.30;33.54;57.31;;
76382;Laerm;65202;52.520;10.528;2023-03-01T10:05:47;41.81;34.39;55.89;;
76382;Laerm;65202;52.520;10.528;2023-03-01T10:08:28;45.93;34.33;67.54;;
76382;Laerm;65202;52.520;10.528;2023-03-01T10:10:58;50.18;34.67;75.36;;
76382;Laerm;65202;52.520;10.528;2023-03-01T10:13:55;51.11;36.15;59.90;;
76382;Laerm;65202;52.520;10.528;2023-03-01T10:16:46;49.41;33.84;63.57;;
76382;Laerm;65202;52.520;10.528;2023-03-01T10:19:25;45.72;34.17;56.49;;
76382;Laerm;65202;52.520;10.528;2023-03-01T10:22:03;44.84;34.45;58.61;;
76382;Laerm;65202;52.520;10.528;2023-03-01T10:24:35;47.98;34.08;62.49;;
76382;Laerm;65202;52.520;10.528;2023-03-01T10:27:17;51.20;35.24;66.90;;
76382;Laerm;65202;52.520;10.528;2023-03-01T10:30:32;52.39;34.80;69.60;;
76382;Laerm;65202;52.520;10.528;2023-03-01T10:33:02;47.23;33.88;64.86;;
76382;Laerm;65202;52.520;10.528;2023-03-01T10:35:33;49.03;33.77;68.11;;
76382;Laerm;65202;52.520;10.528;2023-03-01T10:38:11;44.54;34.29;57.84;;
76382;Laerm;65202;52.520;10.528;2023-03-01T10:40:55;45.34;33.84;65.13;;
76382;Laerm;65202;52.520;10.528;2023-03-01T10:43:42;49.45;33.18;63.31;;
76382;Laerm;65202;52.520;10.528;2023-03-01T10:46:37;43.23;33.41;57.89;;
76382;Laerm;65202;52.520;10.528;2023-03-01T10:49:21;43.81;33.49;59.64;;
76382;Laerm;65202;52.520;10.528;2023-03-01T10:51:51;47.37;33.38;67.95;;
76382;Laerm;65202;52.520;10.528;2023-03-01T10:54:27;53.59;35.29;68.40;;
76382;Laerm;65202;52.520;10.528;2023-03-01T10:57:02;49.07;34.11;66.82;;
76382;Laerm;65202;52.520;10.528;2023-03-01T10:59:33;44.91;33.16;60.00;;
76382;Laerm;65202;52.520;10.528;2023-03-01T11:02:30;50.11;32.76;70.04;;
76382;Laerm;65202;52.520;10.528;2023-03-01T11:05:21;50.78;34.02;70.18;;
76382;Laerm;65202;52.520;10.528;2023-03-01T11:08:01;49.12;33.14;69.62;;
76382;Laerm;65202;52.520;10.528;2023-03-01T11:10:36;41.94;32.62;55.35;;
76382;Laerm;65202;52.520;10.528;2023-03-01T11:13:28;46.78;32.73;76.74;;
76382;Laerm;65202;52.520;10.528;2023-03-01T11:16:05;47.71;33.10;64.24;;
76382;Laerm;65202;52.520;10.528;2023-03-01T11:18:33;45.51;34.04;58.02;;
76382;Laerm;65202;52.520;10.528;2023-03-01T11:21:15;48.23;33.01;65.23;;
76382;Laerm;65202;52.520;10.528;2023-03-01T11:23:46;44.45;33.21;61.29;;
76382;Laerm;65202;52.520;10.528;2023-03-01T11:26:15;49.78;32.85;67.07;;
76382;Laerm;65202;52.520;10.528;2023-03-01T11:28:51;42.41;32.76;56.58;;
76382;Laerm;65202;52.520;10.528;2023-03-01T11:31:24;42.72;32.95;55.45;;
76382;Laerm;65202;52.520;10.528;2023-03-01T11:34:11;43.64;33.74;56.45;;
76382;Laerm;65202;52.520;10.528;2023-03-01T11:36:58;45.76;33.51;63.64;;
76382;Laerm;65202;52.520;10.528;2023-03-01T11:39:39;52.00;33.57;70.38;;
76382;Laerm;65202;52.520;10.528;2023-03-01T11:42:20;48.11;33.14;66.67;;
76382;Laerm;65202;52.520;10.528;2023-03-01T11:44:54;51.67;34.03;70.00;;
76382;Laerm;65202;52.520;10.528;2023-03-01T11:48:01;43.52;33.43;57.77;;
76382;Laerm;65202;52.520;10.528;2023-03-01T11:50:48;45.39;32.94;59.36;;
76382;Laerm;65202;52.520;10.528;2023-03-01T11:54:27;45.04;33.61;57.04;;
76382;Laerm;65202;52.520;10.528;2023-03-01T11:56:43;45.77;33.34;66.68;;
76382;Laerm;65202;52.520;10.528;2023-03-01T11:59:48;50.03;33.94;67.30;;
76382;Laerm;65202;52.520;10.528;2023-03-01T12:02:47;46.70;33.41;62.98;;
76382;Laerm;65202;52.520;10.528;2023-03-01T12:05:47;46.39;33.63;62.77;;
76382;Laerm;65202;52.520;10.528;2023-03-01T12:08:41;44.91;33.66;57.67;;
76382;Laerm;65202;52.520;10.528;2023-03-01T12:11:35;44.38;34.02;62.65;;
76382;Laerm;65202;52.520;10.528;2023-03-01T12:14:27;47.17;33.95;64.56;;
76382;Laerm;65202;52.520;10.528;2023-03-01T12:17:18;49.41;34.76;67.08;;
76382;Laerm;65202;52.520;10.528;2023-03-01T12:20:36;47.69;33.49;64.41;;
76382;Laerm;65202;52.520;10.528;2023-03-01T12:23:45;46.15;34.52;62.56;;
76382;Laerm;65202;52.520;10.528;2023-03-01T12:26:36;43.99;33.47;56.81;;
76382;Laerm;65202;52.520;10.528;2023-03-01T12:29:25;48.64;33.87;63.28;;
76382;Laerm;65202;52.520;10.528;2023-03-01T12:34:55;47.85;34.56;69.93;;
76382;Laerm;65202;52.520;10.528;2023-03-01T12:37:54;44.76;33.52;63.82;;
76382;Laerm;65202;52.520;10.528;2023-03-01T12:49:34;44.67;33.65;55.84;;
76382;Laerm;65202;52.520;10.528;2023-03-01T12:52:27;47.40;34.40;63.34;;
76382;Laerm;65202;52.520;10.528;2023-03-01T12:55:37;49.63;33.94;69.09;;
76382;Laerm;65202;52.520;10.528;2023-03-01T12:58:42;44.71;33.03;64.05;;
76382;Laerm;65202;52.520;10.528;2023-03-01T13:05:19;46.19;32.40;63.59;;
76382;Laerm;65202;52.520;10.528;2023-03-01T13:08:26;48.08;33.19;65.85;;
76382;Laerm;65202;52.520;10.528;2023-03-01T13:11:04;45.41;33.18;63.54;;
76382;Laerm;65202;52.520;10.528;2023-03-01T13:13:40;45.40;33.32;57.24;;
76382;Laerm;65202;52.520;10.528;2023-03-01T13:16:40;45.08;33.73;59.36;;
76382;Laerm;65202;52.520;10.528;2023-03-01T13:19:23;48.05;33.20;66.20;;
76382;Laerm;65202;52.520;10.528;2023-03-01T13:22:32;50.00;33.16;66.70;;
76382;Laerm;65202;52.520;10.528;2023-03-01T13:25:32;42.82;32.86;55.67;;
76382;Laerm;65202;52.520;10.528;2023-03-01T13:28:48;47.20;32.80;65.40;;
76382;Laerm;65202;52.520;10.528;2023-03-01T13:34:03;45.15;32.59;66.22;;
76382;Laerm;65202;52.520;10.528;2023-03-01T13:36:45;48.72;33.85;62.61;;
76382;Laerm;65202;52.520;10.528;2023-03-01T13:39:38;44.29;33.39;63.09;;
76382;Laerm;65202;52.520;10.528;2023-03-01T13:42:47;48.63;33.35;65.05;;
76382;Laerm;65202;52.520;10.528;2023-03-01T13:45:51;48.64;33.67;69.36;;
76382;Laerm;65202;52.520;10.528;2023-03-01T13:48:30;48.42;33.48;67.76;;
76382;Laerm;65202;52.520;10.528;2023-03-01T13:51:09;44.07;33.21;56.10;;
76382;Laerm;65202;52.520;10.528;2023-03-01T13:53:43;44.39;33.26;62.62;;
76382;Laerm;65202;52.520;10.528;2023-03-01T13:56:24;45.90;32.83;62.12;;
76382;Laerm;65202;52.520;10.528;2023-03-01T13:59:21;44.28;33.31;56.45;;
76382;Laerm;65202;52.520;10.528;2023-03-01T14:01:54;46.35;33.39;66.36;;
76382;Laerm;65202;52.520;10.528;2023-03-01T14:04:25;45.45;33.21;59.07;;
76382;Laerm;65202;52.520;10.528;2023-03-01T14:07:21;48.07;32.92;70.57;;
76382;Laerm;65202;52.520;10.528;2023-03-01T14:09:58;49.39;32.85;66.65;;
76382;Laerm;65202;52.520;10.528;2023-03-01T14:12:51;45.51;33.23;59.62;;
76382;Laerm;65202;52.520;10.528;2023-03-01T14:15:37;50.31;32.84;67.22;;
76382;Laerm;65202;52.520;10.528;2023-03-01T14:20:44;50.12;34.88;63.03;;
76382;Laerm;65202;52.520;10.528;2023-03-01T14:23:22;43.99;32.70;57.13;;
76382;Laerm;65202;52.520;10.528;2023-03-01T14:25:53;44.06;32.94;56.15;;
76382;Laerm;65202;52.520;10.528;2023-03-01T14:28:27;49.41;34.64;67.42;;
76382;Laerm;65202;52.520;10.528;2023-03-01T14:30:58;46.00;33.32;63.21;;
76382;Laerm;65202;52.520;10.528;2023-03-01T14:33:36;44.92;33.95;57.15;;
76382;Laerm;65202;52.520;10.528;2023-03-01T14:36:13;44.29;33.02;56.53;;
76382;Laerm;65202;52.520;10.528;2023-03-01T14:38:44;51.04;33.92;67.92;;
76382;Laerm;65202;52.520;10.528;2023-03-01T14:41:23;43.95;33.38;56.16;;
76382;Laerm;65202;52.520;10.528;2023-03-01T14:44:07;46.65;32.98;58.93;;
76382;Laerm;65202;52.520;10.528;2023-03-01T14:46:41;48.11;33.32;62.99;;
76382;Laerm;65202;52.520;10.528;2023-03-01T14:49:15;45.29;34.16;57.57;;
76382;Laerm;65202;52.520;10.528;2023-03-01T14:52:34;48.23;32.77;66.73;;